createdAt,value
2023-04-29T00:04:17.127Z,3.10
2023-04-29T00:15:16.394Z,3.10
2023-04-29T00:26:10.909Z,3.09
2023-04-29T00:37:06.488Z,3.09
2023-04-29T00:47:48.027Z,3.07
2023-04-29T00:58:47.491Z,3.07
2023-04-29T01:09:48.845Z,3.07
2023-04-29T01:20:49.855Z,3.06
2023-04-29T01:31:52.165Z,3.06
2023-04-29T01:42:54.333Z,3.06
2023-04-29T01:53:30.853Z,3.05
2023-04-29T02:04:32.321Z,3.05
2023-04-29T02:15:27.058Z,3.04
2023-04-29T02:26:27.520Z,3.04
2023-04-29T02:37:28.732Z,3.04
2023-04-29T02:48:26.763Z,3.03
2023-04-29T02:59:26.818Z,3.03
2023-04-29T03:10:28.234Z,3.03
2023-04-29T03:21:30.064Z,3.03
2023-04-29T03:32:22.996Z,3.02
2023-04-29T03:43:20.201Z,3.02
2023-04-29T03:54:22.330Z,3.02
2023-04-29T04:05:25.050Z,3.02
2023-04-29T04:16:27.089Z,3.03
2023-04-29T04:27:28.853Z,3.05
2023-04-29T04:38:30.134Z,3.07
2023-04-29T04:49:32.651Z,3.09
2023-04-29T05:00:34.314Z,3.11
2023-04-29T05:11:30.858Z,3.13
2023-04-29T05:22:25.117Z,3.17
2023-04-29T05:33:21.912Z,3.20
2023-04-29T05:44:14.525Z,3.22
2023-04-29T05:55:14.609Z,3.25
2023-04-29T06:06:08.950Z,3.27
2023-04-29T06:17:04.890Z,3.30
2023-04-29T06:27:58.573Z,3.34
2023-04-29T06:38:54.433Z,3.29
2023-04-29T06:49:48.669Z,3.31
2023-04-29T07:00:27.868Z,3.30
2023-04-29T07:11:16.159Z,3.30
2023-04-29T07:22:16.256Z,3.32
2023-04-29T07:33:09.571Z,3.31
2023-04-29T07:44:08.555Z,3.34
2023-04-29T07:55:03.597Z,3.33
2023-04-29T08:05:56.870Z,3.34
2023-04-29T08:16:53.948Z,3.33
2023-04-29T08:27:49.290Z,3.33
2023-04-29T08:38:42.694Z,3.34
2023-04-29T08:49:36.461Z,3.33
2023-04-29T09:00:25.212Z,3.34
2023-04-29T09:11:09.756Z,3.34
2023-04-29T09:22:02.240Z,3.35
2023-04-29T09:32:47.590Z,3.34
2023-04-29T09:43:42.239Z,3.34
2023-04-29T09:54:16.231Z,3.35
2023-04-29T10:05:12.144Z,3.35
2023-04-29T10:16:00.961Z,3.36
2023-04-29T10:26:52.151Z,3.36
2023-04-29T10:37:50.884Z,3.37
2023-04-29T10:48:46.748Z,3.36
2023-04-29T10:59:32.648Z,3.36
2023-04-29T11:10:21.171Z,3.35
2023-04-29T11:21:15.414Z,3.36
2023-04-29T11:31:54.706Z,3.44
2023-04-29T11:42:47.808Z,3.39
2023-04-29T11:53:34.172Z,3.36
2023-04-29T12:04:26.017Z,3.44
2023-04-29T12:15:29.758Z,3.44
2023-04-29T12:26:26.821Z,3.44
2023-04-29T12:37:17.334Z,3.34
2023-04-29T12:48:22.068Z,3.35
2023-04-29T12:58:51.815Z,3.35
2023-04-29T13:09:32.046Z,3.35
2023-04-29T13:20:01.480Z,3.35
2023-04-29T13:30:53.584Z,3.38
2023-04-29T13:41:47.305Z,3.39
2023-04-29T13:53:23.445Z,3.37
2023-04-29T14:03:40.020Z,3.38
2023-04-29T14:14:34.130Z,3.35
2023-04-29T14:25:28.046Z,3.39
2023-04-29T14:36:23.867Z,3.36
2023-04-29T14:47:16.387Z,3.36
2023-04-29T14:58:08.258Z,3.39
2023-04-29T15:09:06.786Z,3.36
2023-04-29T15:20:00.993Z,3.36
2023-04-29T15:30:55.973Z,3.36
2023-04-29T15:41:53.303Z,3.36
2023-04-29T15:52:43.377Z,3.36
2023-04-29T16:03:22.758Z,3.39
2023-04-29T16:14:15.230Z,3.36
2023-04-29T16:25:07.293Z,3.37
2023-04-29T16:35:56.890Z,3.37
2023-04-29T16:46:52.046Z,3.37
2023-04-29T16:57:38.075Z,3.37
2023-04-29T17:08:28.337Z,3.36
2023-04-29T17:19:17.213Z,3.34
2023-04-29T17:29:55.920Z,3.33
2023-04-29T17:40:44.693Z,3.32
2023-04-29T17:51:20.589Z,3.30
2023-04-29T18:02:16.586Z,3.29
2023-04-29T18:13:12.417Z,3.29
2023-04-29T18:24:09.045Z,3.28
2023-04-29T18:34:54.064Z,3.26
2023-04-29T18:45:41.938Z,3.26
2023-04-29T18:56:30.526Z,3.25
2023-04-29T19:07:07.792Z,3.23
2023-04-29T19:17:53.626Z,3.23
2023-04-29T19:28:37.074Z,3.22
2023-04-29T19:39:30.193Z,3.21
2023-04-29T19:50:26.245Z,3.21
2023-04-29T20:01:21.089Z,3.21
2023-04-29T20:12:20.276Z,3.20
2023-04-29T20:23:18.841Z,3.20
2023-04-29T20:34:15.979Z,3.20
2023-04-29T20:45:05.807Z,3.19
2023-04-29T20:55:40.742Z,3.18
2023-04-29T21:06:26.003Z,3.17
2023-04-29T21:17:15.872Z,3.17
2023-04-29T21:28:05.870Z,3.17
2023-04-29T21:38:51.504Z,3.16
2023-04-29T21:49:39.912Z,3.15
2023-04-29T22:00:40.724Z,3.15
2023-04-29T22:11:39.891Z,3.15
2023-04-29T22:22:38.924Z,3.14
2023-04-29T22:33:36.250Z,3.14
2023-04-29T22:44:33.048Z,3.13
2023-04-29T22:55:32.890Z,3.13
2023-04-29T23:06:33.837Z,3.13
2023-04-29T23:17:34.140Z,3.12
2023-04-29T23:28:35.259Z,3.11
2023-04-29T23:39:35.554Z,3.11
2023-04-29T23:50:35.284Z,3.11
